M/V Alton St. Amant — WDE7604 — position and weather

sailwx.info

Track history (hours):
 
Tides and Currents Weather Stations Pressure Air Temp Water Temp Dewpoint Dewpoint Depression Visibility Wind Speed Wind Dir Waves Ship Positions

M/V Alton St. Amant

Owner: The Barge Investment Group Five, L.L.C., Harahan, LA. More information available from US FCC via Universal Licensing System and Coast Guard Vessel Documentation Center.

Last reported at 2016-Aug-04 13:06 UTC. Time now 2016-Aug-24 08:29 UTC.
Position N 29°57' W 090°10'.
Warning: this ship's position is 19 days out of date.

Length 25 m; draft 2.7 m.

Type: Towing. MMSI: 367395270.

Date/timePositionNaut miles runAvg speedWind from/ knotsBaromVisibWave heightAir tempDewpointWater temp
2016-Aug-04 13:06N 29°57' W 090°10'2 4.5
2016-Aug-04 12:33N 29°55' W 090°08'2 1.7
2016-Aug-04 11:30N 29°54' W 090°06'0 0.0
2016-Aug-04 10:33N 29°54' W 090°06'0 0.0
2016-Aug-04 09:32N 29°54' W 090°06'0 0.0
2016-Aug-04 08:30N 29°54' W 090°06'0 0.0
2016-Aug-04 07:33N 29°54' W 090°06'0 0.0
2016-Aug-04 06:33N 29°54' W 090°06'0 0.0
2016-Aug-04 04:33N 29°54' W 090°06'0 0.0
2016-Aug-04 03:33N 29°54' W 090°06'0 0.0
2016-Aug-04 02:33N 29°54' W 090°06'0 0.0
2016-Aug-04 01:33N 29°54' W 090°06'0 0.0
2016-Aug-04 00:33N 29°54' W 090°06'0 0.0
2016-Aug-03 23:14N 29°54' W 090°06'0 0.0
2016-Aug-03 22:33N 29°54' W 090°06'0 0.0
2016-Aug-03 21:33N 29°54' W 090°06'0 0.0
2016-Aug-03 20:33N 29°54' W 090°06'0 0.0
2016-Aug-03 19:33N 29°54' W 090°06'0 0.0
2016-Aug-03 18:33N 29°54' W 090°06'0 0.0
2016-Aug-03 17:33N 29°54' W 090°06'0 0.0
2016-Aug-03 16:33N 29°54' W 090°06'1 0.8
2016-Aug-03 15:33N 29°54' W 090°07'0 0.0
2016-Aug-03 14:33N 29°54' W 090°07'1 0.8
2016-Aug-03 13:33N 29°54' W 090°06'0 0.0
2016-Aug-03 12:33N 29°54' W 090°06'0 0.0
2016-Aug-03 11:33N 29°54' W 090°06'0 0.0
2016-Aug-03 10:33N 29°54' W 090°06'0 0.0
2016-Aug-03 09:33N 29°54' W 090°06'0 0.0
2016-Aug-03 08:33N 29°54' W 090°06'0 0.0
2016-Aug-03 07:33N 29°54' W 090°06'0 0.0
2016-Aug-03 06:33N 29°54' W 090°06'0 0.0
2016-Aug-03 04:33N 29°54' W 090°06'0 0.0
2016-Aug-03 03:33N 29°54' W 090°06'0 0.0
2016-Aug-03 02:33N 29°54' W 090°06'0 0.0
2016-Aug-03 01:33N 29°54' W 090°06'0 0.0
2016-Aug-03 00:33N 29°54' W 090°06'0 0.0
2016-Aug-02 23:33N 29°54' W 090°06'0 0.0
2016-Aug-02 22:33N 29°54' W 090°06'1 0.8
2016-Aug-02 21:33N 29°54' W 090°07'3 3.0
2016-Aug-02 20:33N 29°57' W 090°09'  
2016-Jul-29 07:23N 29°57' W 090°10'4 4.8
2016-Jul-29 06:33N 29°54' W 090°06'0 0.0
2016-Jul-29 05:33N 29°54' W 090°06'0 0.0
2016-Jul-29 04:34N 29°54' W 090°06'0 0.0
2016-Jul-29 03:34N 29°54' W 090°06'0 0.0
2016-Jul-29 02:34N 29°54' W 090°06'0 0.0
2016-Jul-29 01:33N 29°54' W 090°06'0 0.0
2016-Jul-29 00:33N 29°54' W 090°06'0 0.0
2016-Jul-28 23:33N 29°54' W 090°06'0 0.0
2016-Jul-28 22:34N 29°54' W 090°06'0 0.0
2016-Jul-28 21:34N 29°54' W 090°06'0 0.0
2016-Jul-28 20:33N 29°54' W 090°06'0 0.0
2016-Jul-28 19:34N 29°54' W 090°06'0 0.0
2016-Jul-28 18:33N 29°54' W 090°06'0 0.0
2016-Jul-28 17:33N 29°54' W 090°06'0 0.0
2016-Jul-28 16:34N 29°54' W 090°06'0 0.0
2016-Jul-28 15:33N 29°54' W 090°06'3 2.8
2016-Jul-28 14:33N 29°56' W 090°08'  
Track history (hours):
 
Tides and Currents Weather Stations Pressure Air Temp Water Temp Dewpoint Dewpoint Depression Visibility Wind Speed Wind Dir Waves Ship Positions

M/V Alton St. Amant

Owner: The Barge Investment Group Five, L.L.C., Harahan, LA. More information available from US FCC via Universal Licensing System and Coast Guard Vessel Documentation Center.

Last reported at 2016-Aug-04 13:06 UTC. Time now 2016-Aug-24 08:29 UTC.
Position N 29°57' W 090°10'.
Warning: this ship's position is 19 days out of date.

Length 25 m; draft 2.7 m.

Type: Towing. MMSI: 367395270.

Date/timePositionNaut miles runAvg speedWind from/ knotsBaromVisibWave heightAir tempDewpointWater temp
2016-Aug-04 13:06N 29°57' W 090°10'2 4.5
2016-Aug-04 12:33N 29°55' W 090°08'2 1.7
2016-Aug-04 11:30N 29°54' W 090°06'0 0.0
2016-Aug-04 10:33N 29°54' W 090°06'0 0.0
2016-Aug-04 09:32N 29°54' W 090°06'0 0.0
2016-Aug-04 08:30N 29°54' W 090°06'0 0.0
2016-Aug-04 07:33N 29°54' W 090°06'0 0.0
2016-Aug-04 06:33N 29°54' W 090°06'0 0.0
2016-Aug-04 04:33N 29°54' W 090°06'0 0.0
2016-Aug-04 03:33N 29°54' W 090°06'0 0.0
2016-Aug-04 02:33N 29°54' W 090°06'0 0.0
2016-Aug-04 01:33N 29°54' W 090°06'0 0.0
2016-Aug-04 00:33N 29°54' W 090°06'0 0.0
2016-Aug-03 23:14N 29°54' W 090°06'0 0.0
2016-Aug-03 22:33N 29°54' W 090°06'0 0.0
2016-Aug-03 21:33N 29°54' W 090°06'0 0.0
2016-Aug-03 20:33N 29°54' W 090°06'0 0.0
2016-Aug-03 19:33N 29°54' W 090°06'0 0.0
2016-Aug-03 18:33N 29°54' W 090°06'0 0.0
2016-Aug-03 17:33N 29°54' W 090°06'0 0.0
2016-Aug-03 16:33N 29°54' W 090°06'1 0.8
2016-Aug-03 15:33N 29°54' W 090°07'0 0.0
2016-Aug-03 14:33N 29°54' W 090°07'1 0.8
2016-Aug-03 13:33N 29°54' W 090°06'0 0.0
2016-Aug-03 12:33N 29°54' W 090°06'0 0.0
2016-Aug-03 11:33N 29°54' W 090°06'0 0.0
2016-Aug-03 10:33N 29°54' W 090°06'0 0.0
2016-Aug-03 09:33N 29°54' W 090°06'0 0.0
2016-Aug-03 08:33N 29°54' W 090°06'0 0.0
2016-Aug-03 07:33N 29°54' W 090°06'0 0.0
2016-Aug-03 06:33N 29°54' W 090°06'0 0.0
2016-Aug-03 04:33N 29°54' W 090°06'0 0.0
2016-Aug-03 03:33N 29°54' W 090°06'0 0.0
2016-Aug-03 02:33N 29°54' W 090°06'0 0.0
2016-Aug-03 01:33N 29°54' W 090°06'0 0.0
2016-Aug-03 00:33N 29°54' W 090°06'0 0.0
2016-Aug-02 23:33N 29°54' W 090°06'0 0.0
2016-Aug-02 22:33N 29°54' W 090°06'1 0.8
2016-Aug-02 21:33N 29°54' W 090°07'3 3.0
2016-Aug-02 20:33N 29°57' W 090°09'  
2016-Jul-29 07:23N 29°57' W 090°10'4 4.8
2016-Jul-29 06:33N 29°54' W 090°06'0 0.0
2016-Jul-29 05:33N 29°54' W 090°06'0 0.0
2016-Jul-29 04:34N 29°54' W 090°06'0 0.0
2016-Jul-29 03:34N 29°54' W 090°06'0 0.0
2016-Jul-29 02:34N 29°54' W 090°06'0 0.0
2016-Jul-29 01:33N 29°54' W 090°06'0 0.0
2016-Jul-29 00:33N 29°54' W 090°06'0 0.0
2016-Jul-28 23:33N 29°54' W 090°06'0 0.0
2016-Jul-28 22:34N 29°54' W 090°06'0 0.0
2016-Jul-28 21:34N 29°54' W 090°06'0 0.0
2016-Jul-28 20:33N 29°54' W 090°06'0 0.0
2016-Jul-28 19:34N 29°54' W 090°06'0 0.0
2016-Jul-28 18:33N 29°54' W 090°06'0 0.0
2016-Jul-28 17:33N 29°54' W 090°06'0 0.0
2016-Jul-28 16:34N 29°54' W 090°06'0 0.0
2016-Jul-28 15:33N 29°54' W 090°06'3 2.8
2016-Jul-28 14:33N 29°56' W 090°08'  

Dump ship's entire track history